createdAt,value
2023-04-20T00:02:34.316Z,2.70
2023-04-20T00:07:41.527Z,2.28
2023-04-20T00:12:44.874Z,2.50
2023-04-20T00:17:48.713Z,2.97
2023-04-20T00:22:53.354Z,2.75
2023-04-20T00:27:56.579Z,3.10
2023-04-20T00:32:59.916Z,2.92
2023-04-20T00:38:04.596Z,2.75
2023-04-20T00:43:11.995Z,2.95
2023-04-20T00:48:15.306Z,2.72
2023-04-20T00:53:20.400Z,2.67
2023-04-20T00:58:25.564Z,2.47
2023-04-20T01:03:29.016Z,2.35
2023-04-20T01:08:33.626Z,2.53
2023-04-20T01:13:40.550Z,2.85
2023-04-20T01:18:46.560Z,2.70
2023-04-20T01:23:51.409Z,3.00
2023-04-20T01:28:54.656Z,2.80
2023-04-20T01:33:57.897Z,2.55
2023-04-20T01:39:02.646Z,2.47
2023-04-20T01:44:06.034Z,2.17
2023-04-20T01:49:10.071Z,2.83
2023-04-20T01:54:15.045Z,2.20
2023-04-20T01:59:18.467Z,3.03
2023-04-20T02:04:22.076Z,2.20
2023-04-20T02:09:27.137Z,2.45
2023-04-20T02:14:30.486Z,2.33
2023-04-20T02:19:34.776Z,2.40
2023-04-20T02:24:39.462Z,2.70
2023-04-20T02:29:42.735Z,3.00
2023-04-20T02:34:46.298Z,2.65
2023-04-20T02:39:51.229Z,2.40
2023-04-20T02:44:54.486Z,2.65
2023-04-20T02:49:58.018Z,3.08
2023-04-20T02:55:02.725Z,3.95
2023-04-20T03:00:08.863Z,3.08
2023-04-20T03:05:28.723Z,3.58
2023-04-20T03:10:33.627Z,2.95
2023-04-20T03:15:48.565Z,3.25
2023-04-20T03:21:08.291Z,3.15
2023-04-20T03:26:13.598Z,3.45
2023-04-20T03:31:25.678Z,3.55
2023-04-20T03:36:32.045Z,3.23
2023-04-20T03:41:37.196Z,3.55
2023-04-20T03:46:41.138Z,3.90
2023-04-20T03:51:44.417Z,3.87
2023-04-20T03:56:49.767Z,2.95
2023-04-20T04:01:54.257Z,3.87
2023-04-20T04:06:57.741Z,3.08
2023-04-20T04:12:04.687Z,3.40
2023-04-20T04:17:08.873Z,3.58
2023-04-20T04:22:16.625Z,4.05
2023-04-20T04:27:39.913Z,4.10
2023-04-20T04:32:44.725Z,4.30
2023-04-20T04:37:48.950Z,4.40
2023-04-20T04:42:55.691Z,3.70
2023-04-20T04:47:59.970Z,4.67
2023-04-20T04:53:03.290Z,4.63
2023-04-20T04:58:08.138Z,4.60
2023-04-20T05:03:11.885Z,5.17
2023-04-20T05:08:15.207Z,3.80
2023-04-20T05:13:19.718Z,4.25
2023-04-20T05:18:24.204Z,4.88
2023-04-20T05:23:27.485Z,4.63
2023-04-20T05:28:32.092Z,3.90
2023-04-20T05:33:35.388Z,4.10
2023-04-20T05:38:38.857Z,4.47
2023-04-20T05:43:43.493Z,4.30
2023-04-20T05:48:46.817Z,4.50
2023-04-20T05:53:50.041Z,5.20
2023-04-20T05:58:55.088Z,5.40
2023-04-20T06:03:58.567Z,4.28
2023-04-20T06:09:02.095Z,4.70
2023-04-20T06:14:06.699Z,4.68
2023-04-20T06:19:09.944Z,5.28
2023-04-20T06:24:13.202Z,4.55
2023-04-20T06:29:17.943Z,5.07
2023-04-20T06:34:21.209Z,3.45
2023-04-20T06:39:25.224Z,3.05
2023-04-20T06:44:29.815Z,3.45
2023-04-20T06:49:33.076Z,3.58
2023-04-20T06:54:36.364Z,3.60
2023-04-20T06:59:41.245Z,5.15
2023-04-20T07:04:44.872Z,5.32
2023-04-20T07:09:48.086Z,4.97
2023-04-20T07:14:52.946Z,4.68
2023-04-20T07:19:56.511Z,4.38
2023-04-20T07:24:59.819Z,5.05
2023-04-20T07:30:06.427Z,4.85
2023-04-20T07:35:10.586Z,4.82
2023-04-20T07:40:14.108Z,4.47
2023-04-20T07:45:18.682Z,4.30
2023-04-20T07:50:22.435Z,4.75
2023-04-20T07:55:25.871Z,4.78
2023-04-20T08:00:30.814Z,4.32
2023-04-20T08:05:34.251Z,4.75
2023-04-20T08:10:38.159Z,4.72
2023-04-20T08:15:43.213Z,5.25
2023-04-20T08:20:47.145Z,4.85
2023-04-20T08:25:50.597Z,5.35
2023-04-20T08:30:55.584Z,4.80
2023-04-20T08:36:00.989Z,5.50
2023-04-20T08:41:04.369Z,4.20
2023-04-20T08:46:09.949Z,4.75
2023-04-20T08:51:16.065Z,5.13
2023-04-20T08:56:20.319Z,4.75
2023-04-20T09:01:35.603Z,5.75
2023-04-20T09:06:45.136Z,5.55
2023-04-20T09:11:48.784Z,5.10
2023-04-20T09:16:54.406Z,4.53
2023-04-20T09:21:59.146Z,5.82
2023-04-20T09:27:03.173Z,5.03
2023-04-20T09:32:07.975Z,2.70
2023-04-20T09:37:11.748Z,2.67
2023-04-20T09:42:16.593Z,3.10
2023-04-20T09:47:26.049Z,3.28
2023-04-20T09:52:29.405Z,3.78
2023-04-20T09:57:33.701Z,3.67
2023-04-20T10:02:38.905Z,3.90
2023-04-20T10:07:42.257Z,5.22
2023-04-20T10:12:49.380Z,5.75
2023-04-20T10:17:55.125Z,4.32
2023-04-20T10:23:09.737Z,4.88
2023-04-20T10:28:13.196Z,4.28
2023-04-20T10:33:18.275Z,6.82
2023-04-20T10:38:30.680Z,7.53
2023-04-20T10:43:35.358Z,4.60
2023-04-20T10:48:40.694Z,4.50
2023-04-20T10:53:43.870Z,3.65
2023-04-20T10:58:47.254Z,5.20
2023-04-20T11:03:54.869Z,5.40
2023-04-20T11:08:58.269Z,5.50
2023-04-20T11:14:08.782Z,5.50
2023-04-20T11:19:13.446Z,4.90
2023-04-20T11:24:20.901Z,4.60
2023-04-20T11:29:33.216Z,4.55
2023-04-20T11:34:39.965Z,4.00
2023-04-20T11:39:44.264Z,4.15
2023-04-20T11:44:47.471Z,4.53
2023-04-20T11:49:52.278Z,4.97
2023-04-20T11:54:55.557Z,4.78
2023-04-20T11:59:58.749Z,3.97
2023-04-20T12:05:03.767Z,3.92
2023-04-20T12:10:08.588Z,4.47
2023-04-20T12:15:12.913Z,4.45
2023-04-20T12:20:17.509Z,4.93
2023-04-20T12:25:21.011Z,4.03
2023-04-20T12:30:24.496Z,4.13
2023-04-20T12:35:29.171Z,4.20
2023-04-20T12:40:32.654Z,4.18
2023-04-20T12:45:36.231Z,3.42
2023-04-20T12:50:41.262Z,3.78
2023-04-20T12:55:44.618Z,3.85
2023-04-20T13:00:47.946Z,3.50
2023-04-20T13:05:52.554Z,4.10
2023-04-20T13:10:55.802Z,3.67
2023-04-20T13:15:59.163Z,3.63
2023-04-20T13:21:04.082Z,2.90
2023-04-20T13:26:08.714Z,2.60
2023-04-20T13:31:11.980Z,2.42
2023-04-20T13:36:16.705Z,2.65
2023-04-20T13:41:20.339Z,2.80
2023-04-20T13:46:23.648Z,2.47
2023-04-20T13:51:28.867Z,2.47
2023-04-20T13:56:32.026Z,2.15
2023-04-20T14:01:35.444Z,2.42
2023-04-20T14:06:40.266Z,2.53
2023-04-20T14:11:43.799Z,3.20
2023-04-20T14:16:47.994Z,3.15
2023-04-20T14:21:52.697Z,3.53
2023-04-20T14:26:56.820Z,3.25
2023-04-20T14:32:00.201Z,3.17
2023-04-20T14:37:04.918Z,3.50
2023-04-20T14:42:08.725Z,3.40
2023-04-20T14:47:11.957Z,3.75
2023-04-20T14:52:16.596Z,3.92
2023-04-20T14:57:21.850Z,3.15
2023-04-20T15:02:25.585Z,3.63
2023-04-20T15:07:30.401Z,3.70
2023-04-20T15:12:33.552Z,3.65
2023-04-20T15:17:36.896Z,3.97
2023-04-20T15:22:41.524Z,3.65
2023-04-20T15:27:44.907Z,3.40
2023-04-20T15:32:48.168Z,3.40
2023-04-20T15:37:52.914Z,3.70
2023-04-20T15:42:56.156Z,3.22
2023-04-20T15:48:00.987Z,3.83
2023-04-20T15:53:07.509Z,3.53
2023-04-20T15:58:11.075Z,3.60
2023-04-20T16:03:14.616Z,3.72
2023-04-20T16:08:21.187Z,3.95
2023-04-20T16:13:26.146Z,3.92
2023-04-20T16:18:30.023Z,3.72
2023-04-20T16:23:34.789Z,3.55
2023-04-20T16:28:38.228Z,3.95
2023-04-20T16:33:41.656Z,3.55
2023-04-20T16:38:46.732Z,3.88
2023-04-20T16:43:52.062Z,3.67
2023-04-20T16:48:55.436Z,4.18
2023-04-20T16:54:01.608Z,3.38
2023-04-20T16:59:05.701Z,4.07
2023-04-20T17:04:09.383Z,3.90
2023-04-20T17:09:14.582Z,4.40
2023-04-20T17:14:18.097Z,4.03
2023-04-20T17:19:21.492Z,3.83
2023-04-20T17:24:26.103Z,4.13
2023-04-20T17:29:35.010Z,3.80
2023-04-20T17:34:40.048Z,4.00
2023-04-20T17:39:45.613Z,4.22
2023-04-20T17:44:49.585Z,3.65
2023-04-20T17:49:53.028Z,4.40
2023-04-20T17:55:02.413Z,4.38
2023-04-20T18:00:09.217Z,4.88
2023-04-20T18:05:16.300Z,4.53
2023-04-20T18:10:21.396Z,4.40
2023-04-20T18:15:25.694Z,4.65
2023-04-20T18:20:31.140Z,4.38
2023-04-20T18:25:37.944Z,5.10
2023-04-20T18:30:44.943Z,4.72
2023-04-20T18:35:48.991Z,5.50
2023-04-20T18:40:54.869Z,5.32
2023-04-20T18:45:59.072Z,5.38
2023-04-20T18:51:03.928Z,5.85
2023-04-20T18:56:10.293Z,5.00
2023-04-20T19:01:14.901Z,5.63
2023-04-20T19:06:20.156Z,6.15
2023-04-20T19:11:26.678Z,5.75
2023-04-20T19:16:32.637Z,6.30
2023-04-20T19:21:39.640Z,6.63
2023-04-20T19:26:46.282Z,5.65
2023-04-20T19:31:51.991Z,5.70
2023-04-20T19:36:56.484Z,6.28
2023-04-20T19:42:01.984Z,5.47
2023-04-20T19:47:06.722Z,5.93
2023-04-20T19:52:10.616Z,6.43
2023-04-20T19:57:16.580Z,6.10
2023-04-20T20:02:21.069Z,6.03
2023-04-20T20:07:26.824Z,6.68
2023-04-20T20:12:32.032Z,6.50
2023-04-20T20:17:37.891Z,6.47
2023-04-20T20:22:41.581Z,5.93
2023-04-20T20:27:47.227Z,7.05
2023-04-20T20:32:51.276Z,6.47
2023-04-20T20:37:55.972Z,6.03
2023-04-20T20:43:00.877Z,6.28
2023-04-20T20:48:04.257Z,7.05
2023-04-20T20:53:07.651Z,6.38
2023-04-20T20:58:12.280Z,7.53
2023-04-20T21:03:15.743Z,7.32
2023-04-20T21:08:19.116Z,6.40
2023-04-20T21:13:23.884Z,7.00
2023-04-20T21:18:28.499Z,6.05
2023-04-20T21:23:31.818Z,5.78
2023-04-20T21:28:36.429Z,6.30
2023-04-20T21:33:39.867Z,7.07
2023-04-20T21:38:43.121Z,6.95
2023-04-20T21:43:47.803Z,6.32
2023-04-20T21:48:52.183Z,6.28
2023-04-20T21:53:55.752Z,5.43
2023-04-20T21:59:00.323Z,6.07
2023-04-20T22:04:04.648Z,6.90
2023-04-20T22:09:08.121Z,6.75
2023-04-20T22:14:12.771Z,7.45
2023-04-20T22:19:16.362Z,6.03
2023-04-20T22:24:19.793Z,6.25
2023-04-20T22:29:24.506Z,6.05
2023-04-20T22:34:27.755Z,5.70
2023-04-20T22:39:31.000Z,6.00
2023-04-20T22:44:35.560Z,5.72
2023-04-20T22:49:38.761Z,5.50
2023-04-20T22:54:42.021Z,5.85
2023-04-20T22:59:46.707Z,4.70
2023-04-20T23:04:49.987Z,5.35
2023-04-20T23:09:53.852Z,5.30
2023-04-20T23:15:00.673Z,5.78
2023-04-20T23:20:04.512Z,4.97
2023-04-20T23:25:09.895Z,4.65
2023-04-20T23:30:15.427Z,4.57
2023-04-20T23:35:19.814Z,5.53
2023-04-20T23:40:23.220Z,4.82
2023-04-20T23:45:28.573Z,4.82
2023-04-20T23:50:32.201Z,5.70
2023-04-20T23:55:35.601Z,5.28
